Time;durP1;ratioP1;P1;durP2;ratioP2;P2;SDS_P1;SDS_P2;PMS_P1;PMS_P2;Temp;Humidity;BMP_temperature;BMP_pressure;BME280_temperature;BME280_humidity;BME280_pressure;Samples;Min_cycle;Max_cycle;Signal;HPM_P1;HPM_P2
2021/12/03 00:00:34;;;;;;;9.80;1.25;;;2.70;88.00;;;;;;5049518;28;20064;-70
2021/12/03 00:03:00;;;;;;;4.60;1.83;;;2.80;88.10;;;;;;5049706;28;20045;-70
2021/12/03 00:05:25;;;;;;;6.43;1.00;;;2.80;88.10;;;;;;5049306;28;20163;-70
2021/12/03 00:07:51;;;;;;;6.30;1.08;;;2.80;88.10;;;;;;5049367;28;20401;-70
2021/12/03 00:10:21;;;;;;;3.92;1.00;;;2.80;88.00;;;;;;5049660;28;20037;-70
2021/12/03 00:12:47;;;;;;;2.80;0.75;;;2.80;88.50;;;;;;5049286;28;20051;-70
2021/12/03 00:15:13;;;;;;;7.38;0.93;;;2.80;88.60;;;;;;5048864;28;20040;-70
2021/12/03 00:17:39;;;;;;;3.25;0.90;;;2.90;88.60;;;;;;5030859;28;20049;-70
2021/12/03 00:20:08;;;;;;;4.30;1.00;;;2.90;88.70;;;;;;5049529;28;20041;-70
2021/12/03 00:22:34;;;;;;;4.68;0.80;;;2.90;88.60;;;;;;5046868;28;20103;-70
2021/12/03 00:24:59;;;;;;;5.30;1.10;;;2.90;88.40;;;;;;5048744;28;20049;-70
2021/12/03 00:27:25;;;;;;;5.38;1.08;;;2.90;88.40;;;;;;5049922;28;20723;-70
2021/12/03 00:29:50;;;;;;;9.85;0.90;;;3.00;88.40;;;;;;5021101;28;20132;-70
2021/12/03 00:32:16;;;;;;;3.40;1.00;;;3.00;88.50;;;;;;5029892;28;20049;-70
2021/12/03 00:34:42;;;;;;;5.82;0.73;;;3.00;88.80;;;;;;5025217;28;20395;-70
2021/12/03 00:37:08;;;;;;;5.07;1.15;;;3.00;88.80;;;;;;5049296;28;20053;-70
2021/12/03 00:39:33;;;;;;;6.28;1.30;;;3.10;88.70;;;;;;5030587;28;20041;-70
2021/12/03 00:42:01;;;;;;;2.88;0.82;;;3.10;88.70;;;;;;5048917;28;20036;-70
2021/12/03 00:44:29;;;;;;;2.60;0.77;;;3.10;88.80;;;;;;5045607;28;20083;-70
2021/12/03 00:46:56;;;;;;;3.88;0.90;;;3.10;88.80;;;;;;5048750;28;20052;-69
2021/12/03 00:49:22;;;;;;;2.72;0.80;;;3.10;89.00;;;;;;5049469;28;20137;-70
2021/12/03 00:51:47;;;;;;;2.15;0.95;;;3.10;88.90;;;;;;5048413;28;20131;-70
2021/12/03 00:54:14;;;;;;;3.47;0.90;;;3.10;88.90;;;;;;5030990;28;20048;-70
2021/12/03 00:56:40;;;;;;;3.35;0.90;;;3.10;89.10;;;;;;5047185;28;20048;-70
2021/12/03 00:59:05;;;;;;;6.18;1.00;;;3.10;88.90;;;;;;5049026;28;20041;-70
2021/12/03 01:01:31;;;;;;;3.40;1.80;;;3.10;88.90;;;;;;5048577;28;20126;-70
2021/12/03 01:03:57;;;;;;;11.48;1.15;;;3.10;88.80;;;;;;5048682;28;20083;-70
2021/12/03 01:06:23;;;;;;;3.45;1.30;;;3.10;88.80;;;;;;5048558;28;20049;-70
2021/12/03 01:08:49;;;;;;;4.68;0.90;;;3.10;88.80;;;;;;5047300;28;20043;-70
2021/12/03 01:11:15;;;;;;;5.78;1.17;;;3.10;88.70;;;;;;5048917;28;20080;-70
2021/12/03 01:13:43;;;;;;;4.03;1.52;;;3.20;88.60;;;;;;5047996;28;20127;-70
2021/12/03 01:16:10;;;;;;;5.20;1.65;;;3.20;88.50;;;;;;5047841;28;20485;-70
2021/12/03 01:18:36;;;;;;;8.93;1.30;;;3.10;88.50;;;;;;5046973;28;20056;-70
2021/12/03 01:21:03;;;;;;;4.03;1.13;;;3.10;88.50;;;;;;5048758;28;20147;-70
2021/12/03 01:23:29;;;;;;;7.40;1.48;;;3.10;88.50;;;;;;5048378;28;20163;-70
2021/12/03 01:25:55;;;;;;;2.00;1.02;;;3.20;88.60;;;;;;5048867;28;20084;-70
2021/12/03 01:28:22;;;;;;;2.50;0.90;;;3.10;88.70;;;;;;5048785;28;20049;-70
2021/12/03 01:30:48;;;;;;;9.45;1.42;;;3.20;88.60;;;;;;5048659;28;20708;-70
2021/12/03 01:33:14;;;;;;;7.88;0.90;;;3.20;88.80;;;;;;5048267;28;20041;-70
2021/12/03 01:35:39;;;;;;;3.83;1.08;;;3.20;88.80;;;;;;5047542;28;20051;-70
2021/12/03 01:38:07;;;;;;;7.13;1.50;;;3.20;89.00;;;;;;5048590;28;20051;-70
2021/12/03 01:40:34;;;;;;;8.38;1.25;;;3.20;88.90;;;;;;5048764;28;20041;-70
2021/12/03 01:43:01;;;;;;;2.65;0.80;;;3.20;88.80;;;;;;5043092;28;20112;-70
2021/12/03 01:45:31;;;;;;;6.25;1.10;;;3.20;88.80;;;;;;5048681;28;20493;-70
2021/12/03 01:47:58;;;;;;;8.13;1.10;;;3.20;88.80;;;;;;5047171;28;20063;-70
2021/12/03 01:50:41;;;;;;;11.27;1.60;;;3.20;88.80;;;;;;5031180;28;20037;-70
2021/12/03 01:53:09;;;;;;;6.85;1.67;;;3.20;88.80;;;;;;5049913;28;20037;-70
2021/12/03 01:55:36;;;;;;;4.72;1.08;;;3.20;88.80;;;;;;5051101;28;20053;-70
2021/12/03 01:58:03;;;;;;;5.45;0.98;;;3.20;88.60;;;;;;5052011;28;20047;-70
2021/12/03 02:00:53;;;;;;;5.45;0.93;;;3.20;88.60;;;;;;5051891;28;20051;-70
2021/12/03 02:03:21;;;;;;;5.60;0.88;;;3.30;88.60;;;;;;5037623;28;20429;-70
2021/12/03 02:05:47;;;;;;;3.25;1.17;;;3.30;88.60;;;;;;5050936;28;20525;-70
2021/12/03 02:08:13;;;;;;;5.45;1.00;;;3.40;88.50;;;;;;5051827;28;20163;-69
2021/12/03 02:10:40;;;;;;;4.97;1.17;;;3.40;88.40;;;;;;5032372;28;20084;-70
2021/12/03 02:13:06;;;;;;;3.70;1.40;;;3.40;88.30;;;;;;5031631;28;20041;-70
2021/12/03 02:15:32;;;;;;;5.80;1.10;;;3.40;88.20;;;;;;5033520;28;20063;-70
2021/12/03 02:17:58;;;;;;;10.45;1.73;;;3.40;88.20;;;;;;5051713;28;20041;-70
2021/12/03 02:20:25;;;;;;;5.43;1.30;;;3.40;88.30;;;;;;5051393;28;20041;-70
2021/12/03 02:22:51;;;;;;;5.65;1.25;;;3.40;88.50;;;;;;5051480;28;20040;-70
2021/12/03 02:25:20;;;;;;;7.25;1.23;;;3.40;88.50;;;;;;5051638;28;20393;-70
2021/12/03 02:27:52;;;;;;;4.43;0.93;;;3.40;88.50;;;;;;5051715;28;20049;-70
2021/12/03 02:30:19;;;;;;;9.70;1.67;;;3.40;88.50;;;;;;5050282;28;20052;-70
2021/12/03 02:32:49;;;;;;;6.30;1.20;;;3.40;88.50;;;;;;5047425;28;20107;-70
2021/12/03 02:35:16;;;;;;;8.05;1.02;;;3.50;88.50;;;;;;5050439;28;20124;-70
2021/12/03 02:37:42;;;;;;;4.75;1.35;;;3.50;88.40;;;;;;5050787;28;20482;-70
2021/12/03 02:40:10;;;;;;;6.90;1.35;;;3.50;88.50;;;;;;5050310;28;20073;-70
2021/12/03 02:42:35;;;;;;;5.75;1.40;;;3.50;88.50;;;;;;5050993;28;20055;-70
2021/12/03 02:45:03;;;;;;;5.82;1.30;;;3.60;88.40;;;;;;5050246;28;20128;-70
2021/12/03 02:47:28;;;;;;;6.40;1.00;;;3.60;88.30;;;;;;5049966;28;20106;-70
2021/12/03 02:49:54;;;;;;;8.98;1.40;;;3.60;88.50;;;;;;5051210;28;20049;-70
2021/12/03 02:52:19;;;;;;;5.18;1.80;;;3.60;88.50;;;;;;5050242;28;20048;-70
2021/12/03 02:54:45;;;;;;;2.20;0.93;;;3.60;88.40;;;;;;5050797;28;20500;-70
2021/12/03 02:57:11;;;;;;;6.68;1.77;;;3.60;88.50;;;;;;5051266;28;20043;-70
2021/12/03 02:59:37;;;;;;;2.75;1.35;;;3.60;88.60;;;;;;5050571;28;20052;-70
2021/12/03 03:02:03;;;;;;;6.03;1.48;;;3.60;88.80;;;;;;5049900;28;20048;-70
2021/12/03 03:04:28;;;;;;;4.93;1.45;;;3.60;88.70;;;;;;5050684;28;20071;-70
2021/12/03 03:06:55;;;;;;;5.97;1.25;;;3.70;88.70;;;;;;5051115;28;20041;-70
2021/12/03 03:09:20;;;;;;;4.10;1.30;;;3.70;88.70;;;;;;5050658;28;20037;-70
2021/12/03 03:11:46;;;;;;;3.85;1.10;;;3.70;88.70;;;;;;5051035;28;20039;-70
2021/12/03 03:14:13;;;;;;;12.80;1.73;;;3.70;88.60;;;;;;5051196;28;20068;-70
2021/12/03 03:16:38;;;;;;;5.57;1.80;;;3.70;88.70;;;;;;5050319;28;20049;-70
2021/12/03 03:19:16;;;;;;;5.30;1.35;;;3.70;88.60;;;;;;5050464;28;20094;-70
2021/12/03 03:21:43;;;;;;;7.50;1.70;;;3.70;88.70;;;;;;5037030;28;20107;-70
2021/12/03 03:24:10;;;;;;;6.40;1.55;;;3.70;88.60;;;;;;5051123;28;20036;-70
2021/12/03 03:26:37;;;;;;;5.78;2.28;;;3.70;88.60;;;;;;5049724;28;20111;-70
2021/12/03 03:29:09;;;;;;;7.80;1.77;;;3.70;88.50;;;;;;5050949;28;20447;-70
2021/12/03 03:31:37;;;;;;;4.40;1.80;;;3.70;88.60;;;;;;5050537;28;20386;-70
2021/12/03 03:34:04;;;;;;;4.20;1.33;;;3.60;88.50;;;;;;5050750;28;20048;-70
2021/12/03 03:36:39;;;;;;;7.50;1.27;;;3.60;88.40;;;;;;5049422;28;20049;-70
2021/12/03 03:39:08;;;;;;;6.70;1.52;;;3.60;88.30;;;;;;5050691;28;20049;-70
2021/12/03 03:41:34;;;;;;;4.32;1.60;;;3.60;88.40;;;;;;5045349;28;20036;-70
2021/12/03 03:44:00;;;;;;;5.82;1.50;;;3.60;88.40;;;;;;5042482;28;20049;-70
2021/12/03 03:46:26;;;;;;;10.18;1.92;;;3.60;88.50;;;;;;5043730;28;20064;-70
2021/12/03 03:48:52;;;;;;;11.00;1.95;;;3.60;88.50;;;;;;5049443;28;20508;-70
2021/12/03 03:51:18;;;;;;;10.45;2.38;;;3.60;88.50;;;;;;5050314;28;20045;-70
2021/12/03 03:53:44;;;;;;;9.95;1.50;;;3.60;88.30;;;;;;5049359;28;20090;-70
2021/12/03 03:56:10;;;;;;;10.88;1.95;;;3.60;88.20;;;;;;5049046;28;20051;-70
2021/12/03 03:58:37;;;;;;;9.35;1.50;;;3.60;88.30;;;;;;5048617;28;20961;-70
2021/12/03 04:01:04;;;;;;;5.47;1.45;;;3.60;88.10;;;;;;5046057;28;20409;-70
2021/12/03 04:03:31;;;;;;;10.52;1.50;;;3.60;88.10;;;;;;5049326;28;20060;-70
2021/12/03 04:05:57;;;;;;;6.03;1.35;;;3.60;88.20;;;;;;5048760;28;20052;-70
2021/12/03 04:08:23;;;;;;;7.68;1.52;;;3.70;88.20;;;;;;5050415;28;20140;-70
2021/12/03 04:10:49;;;;;;;9.02;1.65;;;3.70;88.10;;;;;;5048995;28;20199;-70
2021/12/03 04:13:15;;;;;;;5.53;1.45;;;3.70;87.80;;;;;;5048534;28;20441;-70
2021/12/03 04:15:42;;;;;;;5.82;1.55;;;3.70;87.70;;;;;;5048501;28;20091;-70
2021/12/03 04:18:08;;;;;;;7.40;1.80;;;3.80;87.60;;;;;;5049702;28;20110;-70
2021/12/03 04:20:35;;;;;;;5.78;1.50;;;3.80;87.60;;;;;;5047306;28;20045;-70
2021/12/03 04:23:01;;;;;;;6.07;1.33;;;3.80;87.50;;;;;;5047246;28;20102;-70
2021/12/03 04:25:26;;;;;;;4.78;1.73;;;3.90;87.50;;;;;;5047818;28;20040;-70
2021/12/03 04:27:52;;;;;;;4.95;1.30;;;3.90;87.40;;;;;;5047601;28;20049;-70
2021/12/03 04:30:22;;;;;;;6.18;2.00;;;3.90;87.40;;;;;;5049235;28;20132;-70
2021/12/03 04:32:48;;;;;;;6.00;1.52;;;3.90;87.30;;;;;;5045727;28;20048;-70
2021/12/03 04:35:13;;;;;;;8.23;1.48;;;3.90;87.20;;;;;;5049334;28;20413;-70
2021/12/03 04:37:39;;;;;;;4.72;1.60;;;4.00;87.10;;;;;;5046964;28;20064;-70
2021/12/03 04:40:07;;;;;;;7.22;1.40;;;4.00;87.10;;;;;;5049491;28;20053;-70
2021/12/03 04:42:33;;;;;;;8.02;1.40;;;4.00;87.10;;;;;;5046630;28;20515;-70
2021/12/03 04:44:59;;;;;;;3.75;1.42;;;4.00;86.90;;;;;;5049036;28;20045;-70
2021/12/03 04:47:25;;;;;;;6.88;1.17;;;4.00;86.90;;;;;;5047790;28;20032;-70
2021/12/03 04:49:50;;;;;;;8.88;2.72;;;4.00;87.00;;;;;;5048791;28;20067;-70
2021/12/03 04:52:16;;;;;;;10.45;1.33;;;4.00;86.80;;;;;;5047139;28;20432;-70
2021/12/03 04:54:42;;;;;;;7.20;1.42;;;4.10;86.70;;;;;;5038812;28;20042;-70
2021/12/03 04:57:08;;;;;;;3.33;0.90;;;4.10;86.80;;;;;;5039940;28;20056;-70
2021/12/03 04:59:34;;;;;;;7.35;1.20;;;4.10;86.70;;;;;;5045370;28;20619;-70
2021/12/03 05:02:00;;;;;;;4.57;1.10;;;4.10;86.60;;;;;;5034134;28;20037;-70
2021/12/03 05:04:26;;;;;;;11.15;1.17;;;4.10;86.60;;;;;;5036501;28;20045;-70
2021/12/03 05:07:04;;;;;;;8.68;1.67;;;4.10;86.50;;;;;;5048505;28;20400;-70
2021/12/03 05:09:30;;;;;;;7.97;1.10;;;4.10;86.20;;;;;;5049221;28;20091;-70
2021/12/03 05:11:55;;;;;;;5.18;1.42;;;4.10;86.20;;;;;;5036017;28;20116;-70
2021/12/03 05:14:21;;;;;;;6.43;1.77;;;4.20;86.10;;;;;;5028205;28;20049;-70
2021/12/03 05:16:48;;;;;;;10.50;1.83;;;4.20;85.90;;;;;;5038382;28;20549;-70
2021/12/03 05:19:15;;;;;;;8.63;1.08;;;4.20;86.00;;;;;;5049291;28;20045;-70
2021/12/03 05:21:41;;;;;;;4.47;1.08;;;4.20;86.00;;;;;;5038748;28;20045;-70
2021/12/03 05:24:07;;;;;;;4.70;1.45;;;4.20;86.10;;;;;;5032122;28;20089;-70
2021/12/03 05:26:33;;;;;;;6.75;1.30;;;4.20;86.10;;;;;;5047732;28;20132;-70
2021/12/03 05:28:58;;;;;;;7.65;1.58;;;4.20;86.10;;;;;;5053243;28;20131;-70
2021/12/03 05:31:24;;;;;;;5.65;1.33;;;4.20;86.10;;;;;;5051105;28;20057;-70
2021/12/03 05:33:49;;;;;;;5.70;2.00;;;4.20;86.20;;;;;;5052745;28;20048;-70
2021/12/03 05:36:15;;;;;;;6.30;1.40;;;4.20;86.30;;;;;;5046913;28;20045;-70
2021/12/03 05:38:41;;;;;;;7.68;2.80;;;4.20;86.30;;;;;;5032979;28;20414;-70
2021/12/03 05:41:06;;;;;;;5.40;1.70;;;4.20;86.40;;;;;;5037507;28;20044;-70
2021/12/03 05:43:32;;;;;;;7.80;2.55;;;4.20;86.50;;;;;;5052735;28;20049;-70
2021/12/03 05:45:57;;;;;;;9.35;1.90;;;4.20;86.60;;;;;;5046674;28;20592;-69
2021/12/03 05:48:23;;;;;;;10.15;1.63;;;4.20;86.60;;;;;;5045365;28;20048;-69
2021/12/03 05:50:50;;;;;;;5.30;1.75;;;4.20;86.70;;;;;;5043685;28;20049;-70
2021/12/03 05:53:16;;;;;;;4.38;1.88;;;4.30;86.80;;;;;;5052616;28;20049;-69
2021/12/03 05:55:42;;;;;;;9.50;2.28;;;4.30;86.70;;;;;;5051777;28;20044;-69
2021/12/03 05:58:08;;;;;;;9.40;2.15;;;4.40;86.90;;;;;;5052037;28;20218;-69
2021/12/03 06:00:38;;;;;;;11.82;1.65;;;4.40;87.30;;;;;;5051450;28;20421;-69
2021/12/03 06:03:04;;;;;;;7.78;2.17;;;4.40;87.40;;;;;;5052380;28;20489;-69
2021/12/03 06:05:32;;;;;;;5.10;1.30;;;4.40;87.30;;;;;;5043616;28;20045;-69
2021/12/03 06:07:57;;;;;;;9.45;1.40;;;4.40;87.60;;;;;;5049881;28;20949;-69
2021/12/03 06:10:24;;;;;;;6.65;1.45;;;4.40;87.40;;;;;;5052143;28;20047;-69
2021/12/03 06:12:50;;;;;;;7.22;1.75;;;4.40;87.30;;;;;;5052005;28;20041;-69
2021/12/03 06:15:17;;;;;;;10.27;1.60;;;4.40;87.30;;;;;;5051908;28;20098;-69
2021/12/03 06:17:43;;;;;;;4.97;1.73;;;4.50;87.40;;;;;;5051519;28;20120;-68
2021/12/03 06:20:10;;;;;;;5.82;1.67;;;4.50;87.30;;;;;;5050969;28;20116;-69
2021/12/03 06:22:36;;;;;;;14.77;4.15;;;4.50;87.40;;;;;;5051701;28;20041;-69
2021/12/03 06:25:03;;;;;;;6.00;1.88;;;4.50;87.60;;;;;;5050734;28;20048;-69
2021/12/03 06:27:30;;;;;;;7.35;1.80;;;4.40;87.70;;;;;;5031883;28;20041;-69
2021/12/03 06:29:57;;;;;;;5.82;1.52;;;4.40;87.70;;;;;;5036210;28;20047;-68
2021/12/03 06:32:23;;;;;;;6.75;2.15;;;4.40;87.70;;;;;;5051050;28;20041;-67
2021/12/03 06:34:49;;;;;;;8.07;2.80;;;4.40;87.80;;;;;;5051468;28;20569;-68
2021/12/03 06:37:15;;;;;;;10.38;3.50;;;4.40;87.90;;;;;;5050309;28;20137;-69
2021/12/03 06:39:41;;;;;;;10.48;2.58;;;4.40;88.00;;;;;;5050396;28;20128;-69
2021/12/03 06:42:06;;;;;;;8.43;2.92;;;4.40;87.80;;;;;;5051568;28;20040;-69
2021/12/03 06:44:32;;;;;;;7.53;3.90;;;4.40;88.00;;;;;;5033389;28;20053;-69
2021/12/03 06:47:00;;;;;;;9.30;3.08;;;4.40;88.20;;;;;;5041850;28;20037;-69
2021/12/03 06:49:28;;;;;;;9.30;4.00;;;4.40;88.10;;;;;;5051403;28;20060;-69
2021/12/03 06:52:00;;;;;;;8.82;2.67;;;4.40;88.10;;;;;;5051054;28;20060;-69
2021/12/03 06:54:30;;;;;;;8.38;3.35;;;4.50;88.20;;;;;;5050439;28;20045;-70
2021/12/03 06:56:56;;;;;;;6.70;2.22;;;5.00;90.00;;;;;;5050788;28;20045;-69
2021/12/03 06:59:23;;;;;;;9.52;2.20;;;4.90;89.10;;;;;;5051229;28;20033;-69
2021/12/03 07:01:50;;;;;;;10.27;3.17;;;4.80;88.30;;;;;;5049488;28;20045;-69
2021/12/03 07:04:16;;;;;;;11.38;2.72;;;4.80;88.00;;;;;;5050579;28;20523;-69
2021/12/03 07:06:42;;;;;;;14.82;3.42;;;4.70;88.00;;;;;;5050670;28;20501;-70
2021/12/03 07:09:08;;;;;;;9.88;2.60;;;4.60;88.30;;;;;;5049941;28;20076;-71
2021/12/03 07:11:34;;;;;;;8.82;2.90;;;4.60;88.50;;;;;;5051022;28;20839;-71
2021/12/03 07:14:00;;;;;;;12.18;4.25;;;4.70;88.60;;;;;;5050719;28;20152;-70
2021/12/03 07:16:26;;;;;;;10.30;2.72;;;4.70;88.30;;;;;;5050547;28;20461;-68
2021/12/03 07:18:51;;;;;;;11.30;2.95;;;4.60;88.20;;;;;;5050941;28;20044;-70
2021/12/03 07:21:17;;;;;;;9.15;2.75;;;4.60;88.30;;;;;;5049320;28;20102;-70
2021/12/03 07:23:43;;;;;;;7.38;2.85;;;4.70;88.30;;;;;;5049165;28;20037;-69
2021/12/03 07:26:09;;;;;;;9.10;2.58;;;4.80;88.20;;;;;;5050115;28;20041;-69
2021/12/03 07:28:34;;;;;;;6.45;2.20;;;4.70;88.10;;;;;;5050129;28;20052;-69
2021/12/03 07:31:00;;;;;;;9.50;2.67;;;4.70;88.00;;;;;;5050228;28;20041;-69
2021/12/03 07:33:28;;;;;;;12.43;2.55;;;4.70;87.60;;;;;;5049950;28;20401;-69
2021/12/03 07:35:54;;;;;;;6.28;1.77;;;4.70;87.10;;;;;;5050475;28;20064;-69
2021/12/03 07:38:20;;;;;;;13.50;3.00;;;4.70;87.40;;;;;;5049581;28;20405;-67
2021/12/03 07:40:46;;;;;;;12.10;1.50;;;4.60;87.30;;;;;;5050033;28;20041;-67
2021/12/03 07:43:12;;;;;;;10.63;1.90;;;4.70;87.50;;;;;;5049792;28;20128;-67
2021/12/03 07:45:38;;;;;;;7.47;2.13;;;4.80;87.40;;;;;;5049377;28;20183;-67
2021/12/03 07:48:05;;;;;;;6.85;2.47;;;4.80;87.40;;;;;;5047052;28;20047;-67
2021/12/03 07:50:35;;;;;;;8.80;2.10;;;4.80;87.50;;;;;;5048610;28;20486;-67
2021/12/03 07:53:02;;;;;;;10.82;2.00;;;4.80;87.60;;;;;;5049186;28;20040;-67
2021/12/03 07:55:27;;;;;;;9.98;1.75;;;4.80;87.60;;;;;;5049335;28;20119;-67
2021/12/03 07:57:55;;;;;;;6.82;1.88;;;4.90;87.60;;;;;;5049206;28;20087;-67
2021/12/03 08:00:21;;;;;;;8.85;2.08;;;4.90;87.60;;;;;;5048391;28;20049;-67
2021/12/03 08:02:46;;;;;;;20.48;2.83;;;4.90;87.60;;;;;;5048800;28;20179;-67
2021/12/03 08:05:12;;;;;;;11.68;1.65;;;4.80;87.60;;;;;;5049065;28;20152;-67
2021/12/03 08:07:39;;;;;;;12.02;3.88;;;4.90;87.60;;;;;;5049312;28;20047;-67
2021/12/03 08:10:05;;;;;;;16.90;3.38;;;4.90;87.70;;;;;;5047726;28;20060;-67
2021/12/03 08:12:31;;;;;;;9.80;1.88;;;4.90;87.70;;;;;;5042577;28;20490;-67
2021/12/03 08:14:57;;;;;;;6.70;1.92;;;4.90;87.70;;;;;;5041158;28;20037;-67
2021/12/03 08:17:22;;;;;;;7.75;1.80;;;5.00;87.60;;;;;;5040111;28;20038;-67
2021/12/03 08:19:48;;;;;;;7.75;2.40;;;5.00;87.50;;;;;;5039100;28;20174;-66
2021/12/03 08:22:14;;;;;;;7.78;1.83;;;5.10;87.30;;;;;;5049672;28;20401;-66
2021/12/03 08:24:39;;;;;;;8.80;1.60;;;5.00;86.70;;;;;;5049762;28;20049;-66
2021/12/03 08:27:05;;;;;;;7.50;1.15;;;5.00;85.90;;;;;;5049367;28;20481;-66
2021/12/03 08:29:31;;;;;;;9.32;1.50;;;5.10;85.80;;;;;;5049319;28;20045;-66
2021/12/03 08:31:56;;;;;;;9.07;1.65;;;5.10;85.30;;;;;;5048840;28;20127;-67
2021/12/03 08:34:22;;;;;;;9.90;1.67;;;5.00;85.30;;;;;;5049313;28;20068;-66
2021/12/03 08:36:47;;;;;;;11.30;2.35;;;5.00;85.20;;;;;;5047114;28;20056;-66
2021/12/03 08:39:13;;;;;;;10.13;1.80;;;5.00;85.70;;;;;;5046557;28;20048;-66
2021/12/03 08:41:38;;;;;;;6.82;2.72;;;4.90;85.90;;;;;;5046475;28;20045;-66
2021/12/03 08:44:04;;;;;;;14.73;2.50;;;4.90;86.50;;;;;;5047394;28;20033;-67
2021/12/03 08:46:35;;;;;;;8.88;2.97;;;4.90;86.80;;;;;;5046818;28;20048;-67
2021/12/03 08:49:25;;;;;;;11.05;3.10;;;5.00;87.00;;;;;;5047322;28;20111;-67
2021/12/03 08:57:11;;;;;;;9.15;3.33;;;5.10;87.50;;;;;;5049498;28;20053;-66
2021/12/03 08:59:36;;;;;;;9.43;3.10;;;5.10;87.50;;;;;;5048227;28;20043;-67
2021/12/03 09:02:02;;;;;;;10.68;2.83;;;5.10;87.70;;;;;;5048090;28;20401;-65
2021/12/03 09:04:28;;;;;;;14.75;4.10;;;5.10;87.60;;;;;;5048890;28;20059;-66
2021/12/03 09:06:55;;;;;;;11.75;4.13;;;5.10;87.60;;;;;;5047646;28;20055;-65
2021/12/03 09:09:20;;;;;;;12.82;3.40;;;5.10;87.80;;;;;;5047497;28;20048;-65
2021/12/03 09:11:46;;;;;;;10.88;2.78;;;5.10;87.70;;;;;;5048306;28;20059;-65
2021/12/03 09:15:00;;;;;;;11.02;3.65;;;5.10;87.70;;;;;;5049186;28;20048;-65
2021/12/03 09:22:55;;;;;;;10.85;2.63;;;5.20;87.40;;;;;;4988400;28;20046;-67
2021/12/03 09:25:32;;;;;;;9.15;3.08;;;6.20;94.20;;;;;;5024742;28;20517;-66
2021/12/03 09:28:02;;;;;;;11.48;3.65;;;6.30;88.70;;;;;;5028284;28;20046;-66
2021/12/03 09:30:35;;;;;;;11.75;3.10;;;6.20;87.10;;;;;;5035344;28;20044;-67
2021/12/03 09:33:01;;;;;;;12.40;3.42;;;6.00;86.20;;;;;;5047744;28;20249;-68
2021/12/03 09:35:27;;;;;;;13.85;2.72;;;5.80;86.10;;;;;;5048697;28;20056;-67
2021/12/03 09:37:53;;;;;;;15.32;3.53;;;5.70;86.10;;;;;;5047045;28;20053;-67
2021/12/03 09:40:24;;;;;;;13.57;3.63;;;5.60;86.50;;;;;;5048461;28;20390;-67
2021/12/03 09:42:50;;;;;;;9.60;3.00;;;5.60;86.50;;;;;;5049324;28;20041;-68
2021/12/03 09:45:16;;;;;;;12.38;2.30;;;5.50;86.20;;;;;;5047332;28;20811;-65
2021/12/03 09:47:42;;;;;;;15.25;3.45;;;5.50;86.50;;;;;;5047590;28;20447;-68
2021/12/03 09:50:17;;;;;;;15.90;3.88;;;5.60;86.10;;;;;;5048125;28;20072;-67
2021/12/03 09:55:28;;;;;;;22.98;5.10;;;5.60;86.00;;;;;;5039925;28;20053;-67
2021/12/03 10:03:09;;;;;;;16.35;3.03;;;5.60;86.10;;;;;;5046154;28;20199;-67
2021/12/03 10:23:33;;;;;;;12.40;3.72;;;5.40;86.60;;;;;;5049118;28;20068;-67
2021/12/03 10:49:19;;;;;;;9.18;3.08;;;5.00;87.20;;;;;;5042377;28;20425;-67
2021/12/03 11:19:24;;;;;;;8.40;2.60;;;4.90;87.80;;;;;;5041702;28;20052;-67
2021/12/03 11:35:55;;;;;;;8.98;3.08;;;4.80;86.90;;;;;;5034816;28;20475;-67
2021/12/03 12:56:34;;;;;;;15.60;4.60;;;4.70;88.30;;;;;;5041016;28;20079;-67
2021/12/03 13:31:43;;;;;;;9.48;3.15;;;5.00;86.70;;;;;;5041354;28;19924;-65
2021/12/03 14:38:30;;;;;;;;;;;4.90;89.80;;;;;;5051693;28;20076;-66
2021/12/03 14:41:12;;;;;;;11.55;4.70;;;4.90;90.20;;;;;;5046646;28;20277;-66
2021/12/03 14:44:03;;;;;;;8.05;4.25;;;4.90;90.70;;;;;;5044886;28;20041;-66
2021/12/03 14:46:46;;;;;;;14.70;4.55;;;4.90;90.60;;;;;;5049735;28;20049;-66
2021/12/03 14:52:07;;;;;;;14.65;6.10;;;4.90;91.10;;;;;;5039930;28;20508;-66
2021/12/03 14:54:56;;;;;;;12.55;5.57;;;4.80;91.50;;;;;;5050497;28;20052;-66
2021/12/03 15:00:15;;;;;;;15.00;6.07;;;4.80;91.50;;;;;;5029831;28;20429;-65
2021/12/03 15:11:28;;;;;;;13.88;4.93;;;4.90;91.70;;;;;;5050847;28;20052;-66
2021/12/03 15:19:14;;;;;;;8.15;5.78;;;4.90;91.80;;;;;;5045940;28;20052;-66
2021/12/03 15:27:21;;;;;;;9.00;5.80;;;4.90;92.20;;;;;;5050407;28;20045;-65
2021/12/03 15:32:26;;;;;;;12.15;6.85;;;5.00;92.10;;;;;;5050973;28;20051;-65
2021/12/03 15:35:00;;;;;;;8.70;6.43;;;4.90;92.30;;;;;;5050136;28;20524;-65
2021/12/03 15:56:16;;;;;;;12.13;7.30;;;4.90;92.70;;;;;;5049740;28;20125;-65
2021/12/03 16:04:18;;;;;;;14.57;7.47;;;4.90;93.00;;;;;;5034263;28;20059;-66
2021/12/03 16:22:32;;;;;;;13.88;8.15;;;4.90;93.10;;;;;;5031032;28;20053;-66
2021/12/03 16:25:10;;;;;;;13.65;8.13;;;4.90;93.30;;;;;;5032029;28;20045;-67
2021/12/03 16:43:34;;;;;;;9.88;7.15;;;4.90;93.30;;;;;;5034565;28;20045;-67
2021/12/03 16:49:41;;;;;;;9.48;7.32;;;5.00;93.10;;;;;;5035021;28;20045;-66
2021/12/03 16:54:17;;;;;;;7.93;7.13;;;5.00;93.30;;;;;;5029816;28;20096;-66
2021/12/03 16:56:45;;;;;;;8.40;7.38;;;5.00;93.30;;;;;;5028627;28;20488;-66
2021/12/03 16:59:11;;;;;;;9.43;7.43;;;5.00;93.50;;;;;;5036602;28;20037;-66
2021/12/03 17:04:20;;;;;;;10.65;8.27;;;5.00;93.50;;;;;;5032065;28;20084;-67
2021/12/03 17:09:21;;;;;;;7.93;7.13;;;5.00;93.60;;;;;;5036113;28;20045;-67
2021/12/03 17:12:04;;;;;;;9.35;7.95;;;5.10;93.40;;;;;;5030976;28;20042;-67
2021/12/03 17:57:08;;;;;;;11.65;8.40;;;5.20;93.70;;;;;;5034646;28;20405;-70
2021/12/03 17:59:43;;;;;;;12.85;9.02;;;5.20;93.70;;;;;;5030717;28;20049;-70
2021/12/03 18:02:18;;;;;;;10.73;9.10;;;5.20;93.70;;;;;;5034436;28;20064;-70
2021/12/03 18:17:37;;;;;;;13.23;10.68;;;5.30;93.60;;;;;;5035646;28;20053;-67
2021/12/03 18:47:59;;;;;;;20.90;15.35;;;5.30;93.40;;;;;;5027498;28;20401;-66
2021/12/03 18:50:47;;;;;;;18.52;15.18;;;5.30;93.50;;;;;;5032461;28;20105;-66
2021/12/03 18:53:25;;;;;;;20.67;16.00;;;5.40;93.50;;;;;;5050014;28;20063;-66
2021/12/03 18:55:56;;;;;;;19.00;15.07;;;5.40;93.40;;;;;;5045451;28;20172;-66
2021/12/03 18:58:27;;;;;;;18.17;15.95;;;5.40;93.40;;;;;;5046369;28;20037;-66
2021/12/03 19:00:55;;;;;;;18.17;15.98;;;5.40;93.40;;;;;;5048660;28;20390;-67
2021/12/03 19:06:19;;;;;;;20.25;16.77;;;5.40;93.30;;;;;;5042804;28;20056;-66
2021/12/03 19:08:51;;;;;;;21.67;17.42;;;5.40;93.30;;;;;;5050968;28;20044;-67
2021/12/03 19:11:33;;;;;;;21.15;17.85;;;5.40;93.30;;;;;;5050904;28;20124;-66
2021/12/03 19:13:59;;;;;;;23.35;18.17;;;5.40;93.40;;;;;;5050137;28;20127;-67
2021/12/03 19:16:26;;;;;;;26.95;18.92;;;5.40;93.40;;;;;;5050248;28;20468;-67
2021/12/03 19:18:54;;;;;;;24.50;19.48;;;5.40;93.50;;;;;;5044646;28;20496;-67
2021/12/03 19:21:24;;;;;;;25.55;19.98;;;5.40;93.50;;;;;;5042413;28;20041;-67
2021/12/03 19:23:58;;;;;;;25.60;19.50;;;5.40;93.40;;;;;;5042620;28;20040;-68
2021/12/03 19:26:26;;;;;;;27.10;20.10;;;5.40;93.50;;;;;;5041817;28;20489;-69
2021/12/03 19:28:51;;;;;;;23.50;19.38;;;5.50;93.40;;;;;;5046296;28;20565;-67
2021/12/03 19:31:20;;;;;;;27.65;20.15;;;5.40;93.40;;;;;;5049777;28;20124;-68
2021/12/03 19:33:46;;;;;;;25.52;20.35;;;5.40;93.50;;;;;;5041622;28;20095;-66
2021/12/03 19:36:15;;;;;;;26.10;21.08;;;5.40;93.40;;;;;;5045222;28;20088;-66
2021/12/03 19:38:41;;;;;;;25.85;21.90;;;5.50;93.40;;;;;;5046948;28;20136;-67
2021/12/03 19:41:53;;;;;;;29.13;21.95;;;5.60;93.30;;;;;;5050322;28;20124;-67
2021/12/03 19:43:58;;;;;;;28.35;21.77;;;5.50;93.50;;;;;;5043678;28;20071;-67
2021/12/03 19:46:31;;;;;;;27.45;22.42;;;5.50;93.50;;;;;;5048678;28;20116;-67
2021/12/03 19:51:26;;;;;;;30.60;24.20;;;5.40;93.70;;;;;;5046929;28;20045;-67
2021/12/03 19:56:25;;;;;;;29.83;24.55;;;5.40;93.60;;;;;;5049090;28;20063;-66
2021/12/03 19:58:52;;;;;;;30.92;23.65;;;5.50;93.60;;;;;;5029138;28;20418;-66
2021/12/03 20:01:18;;;;;;;38.67;24.38;;;5.40;93.50;;;;;;5048149;28;20124;-67
2021/12/03 20:03:44;;;;;;;28.42;22.77;;;5.40;93.40;;;;;;5049912;28;20049;-66
2021/12/03 20:06:11;;;;;;;32.55;26.17;;;5.40;93.40;;;;;;5030764;28;20649;-67
2021/12/03 20:08:37;;;;;;;34.72;24.05;;;5.50;93.30;;;;;;5028783;28;20120;-67
2021/12/03 20:11:07;;;;;;;31.30;25.05;;;5.40;93.30;;;;;;5046353;28;20417;-66
2021/12/03 20:13:33;;;;;;;29.20;23.13;;;5.40;93.30;;;;;;5047395;28;20548;-67
2021/12/03 20:18:42;;;;;;;33.20;23.08;;;5.40;93.30;;;;;;5049089;28;20596;-67
2021/12/03 20:21:10;;;;;;;31.67;24.15;;;5.40;93.30;;;;;;5049277;28;20041;-67
2021/12/03 20:29:12;;;;;;;27.65;22.33;;;5.40;93.20;;;;;;5048776;28;20128;-67
2021/12/03 20:31:43;;;;;;;31.48;24.52;;;5.40;93.20;;;;;;5049444;28;20045;-67
2021/12/03 20:37:06;;;;;;;30.45;22.95;;;5.40;93.10;;;;;;5033314;28;20119;-67
2021/12/03 20:39:38;;;;;;;28.90;22.17;;;5.40;93.10;;;;;;5046143;28;20512;-67
2021/12/03 20:42:13;;;;;;;;;;;5.40;93.20;;;;;;5035145;28;20088;-67
2021/12/03 20:44:57;;;;;;;31.10;22.23;;;5.40;93.20;;;;;;5042795;28;19932;-67
2021/12/03 20:50:09;;;;;;;34.47;24.05;;;5.40;93.30;;;;;;5048848;28;20055;-67
2021/12/03 20:52:51;;;;;;;31.73;23.52;;;5.40;93.20;;;;;;5048159;28;20041;-67